createdAt,value
2023-05-25T00:00:59.888Z,6.82
2023-05-25T00:03:28.725Z,4.38
2023-05-25T00:05:55.520Z,4.38
2023-05-25T00:08:22.212Z,4.93
2023-05-25T00:10:48.952Z,4.82
2023-05-25T00:13:15.633Z,4.15
2023-05-25T00:15:42.447Z,4.47
2023-05-25T00:18:09.327Z,4.63
2023-05-25T00:20:36.080Z,4.47
2023-05-25T00:23:02.812Z,4.20
2023-05-25T00:25:29.729Z,5.18
2023-05-25T00:27:56.938Z,5.05
2023-05-25T00:30:23.682Z,4.63
2023-05-25T00:32:51.516Z,5.53
2023-05-25T00:35:18.205Z,5.20
2023-05-25T00:37:44.893Z,4.70
2023-05-25T00:40:12.391Z,4.85
2023-05-25T00:42:39.293Z,4.05
2023-05-25T00:45:06.810Z,3.85
2023-05-25T00:47:33.523Z,5.53
2023-05-25T00:50:00.641Z,4.43
2023-05-25T00:52:27.501Z,4.50
2023-05-25T00:54:55.433Z,5.03
2023-05-25T00:57:23.372Z,4.53
2023-05-25T00:59:51.807Z,4.40
2023-05-25T01:02:19.596Z,4.25
2023-05-25T01:04:52.296Z,4.50
2023-05-25T01:09:53.541Z,4.38
2023-05-25T01:12:20.304Z,4.97
2023-05-25T01:14:48.214Z,4.57
2023-05-25T01:17:15.795Z,4.82
2023-05-25T01:19:47.683Z,4.70
2023-05-25T01:22:32.526Z,4.43
2023-05-25T01:25:04.063Z,5.20
2023-05-25T01:27:39.886Z,4.78
2023-05-25T01:30:07.723Z,5.20
2023-05-25T01:32:35.305Z,4.85
2023-05-25T01:35:02.156Z,5.00
2023-05-25T01:37:28.819Z,4.97
2023-05-25T01:39:55.866Z,5.28
2023-05-25T01:42:22.515Z,4.80
2023-05-25T01:44:49.154Z,4.97
2023-05-25T01:47:21.931Z,4.78
2023-05-25T01:52:30.677Z,5.85
2023-05-25T01:55:06.133Z,5.88
2023-05-25T01:57:35.581Z,6.00
2023-05-25T02:00:03.170Z,6.18
2023-05-25T02:02:30.261Z,5.75
2023-05-25T02:04:57.034Z,5.65
2023-05-25T02:07:23.783Z,6.65
2023-05-25T02:09:51.158Z,6.25
2023-05-25T02:12:18.029Z,8.05
2023-05-25T02:14:48.285Z,7.50
2023-05-25T02:17:17.628Z,8.32
2023-05-25T02:19:45.512Z,8.77
2023-05-25T02:22:12.308Z,8.40
2023-05-25T02:24:39.141Z,8.20
2023-05-25T02:27:06.458Z,9.13
2023-05-25T02:29:33.211Z,11.68
2023-05-25T02:31:59.897Z,11.18
2023-05-25T02:34:26.601Z,10.93
2023-05-25T02:36:53.221Z,13.57
2023-05-25T02:39:19.956Z,12.90
2023-05-25T02:41:46.619Z,15.18
2023-05-25T02:44:13.213Z,14.75
2023-05-25T02:46:39.838Z,14.63
2023-05-25T02:49:06.480Z,15.68
2023-05-25T02:51:33.476Z,15.02
2023-05-25T02:54:00.330Z,17.45
2023-05-25T02:56:27.554Z,14.18
2023-05-25T02:58:54.221Z,15.77
2023-05-25T03:01:21.069Z,16.05
2023-05-25T03:03:52.067Z,14.07
2023-05-25T03:06:18.807Z,17.15
2023-05-25T03:08:45.538Z,16.08
2023-05-25T03:11:12.253Z,15.32
2023-05-25T03:13:38.892Z,15.93
2023-05-25T03:16:06.077Z,15.25
2023-05-25T03:18:32.705Z,15.15
2023-05-25T03:20:59.333Z,15.30
2023-05-25T03:23:26.127Z,15.13
2023-05-25T03:25:52.757Z,14.20
2023-05-25T03:28:19.530Z,15.23
2023-05-25T03:30:46.230Z,14.90
2023-05-25T03:33:14.374Z,13.48
2023-05-25T03:35:41.486Z,13.27
2023-05-25T03:38:08.267Z,13.65
2023-05-25T03:40:34.885Z,14.70
2023-05-25T03:43:01.968Z,14.55
2023-05-25T03:45:28.829Z,11.32
2023-05-25T03:47:55.656Z,15.65
2023-05-25T03:50:22.398Z,14.88
2023-05-25T03:52:49.011Z,13.55
2023-05-25T03:55:15.768Z,14.95
2023-05-25T03:57:42.431Z,14.13
2023-05-25T04:00:09.955Z,15.10
2023-05-25T04:02:36.771Z,14.38
2023-05-25T04:05:03.871Z,14.98
2023-05-25T04:07:31.080Z,13.70
2023-05-25T04:09:59.640Z,14.82
2023-05-25T04:12:27.207Z,16.17
2023-05-25T04:14:53.986Z,17.17
2023-05-25T04:17:24.730Z,18.70
2023-05-25T04:19:52.107Z,17.02
2023-05-25T04:22:18.853Z,15.88
2023-05-25T04:24:46.093Z,18.27
2023-05-25T04:27:14.365Z,16.48
2023-05-25T04:29:42.943Z,17.88
2023-05-25T04:32:09.742Z,15.73
2023-05-25T04:34:36.669Z,16.48
2023-05-25T04:37:09.165Z,15.45
2023-05-25T04:42:04.577Z,16.40
2023-05-25T04:44:32.964Z,15.27
2023-05-25T04:47:01.153Z,15.45
2023-05-25T04:49:27.955Z,14.98
2023-05-25T04:51:54.662Z,15.05
2023-05-25T04:54:21.392Z,16.83
2023-05-25T04:56:48.132Z,15.95
2023-05-25T04:59:14.892Z,13.65
2023-05-25T05:01:41.658Z,15.02
2023-05-25T05:04:08.709Z,15.00
2023-05-25T05:06:36.442Z,14.82
2023-05-25T05:09:03.397Z,14.07
2023-05-25T05:11:30.045Z,15.02
2023-05-25T05:13:57.003Z,14.82
2023-05-25T05:16:23.794Z,15.38
2023-05-25T05:18:50.633Z,16.27
2023-05-25T05:21:17.401Z,16.52
2023-05-25T05:23:44.277Z,16.80
2023-05-25T05:26:11.670Z,14.88
2023-05-25T05:28:38.600Z,15.10
2023-05-25T05:31:05.338Z,16.33
2023-05-25T05:33:32.192Z,15.73
2023-05-25T05:35:59.346Z,14.43
2023-05-25T05:38:26.047Z,16.48
2023-05-25T05:40:52.684Z,15.82
2023-05-25T05:43:19.354Z,15.98
2023-05-25T05:45:46.400Z,15.30
2023-05-25T05:48:13.251Z,15.82
2023-05-25T05:50:42.011Z,16.40
2023-05-25T05:53:09.813Z,15.45
2023-05-25T05:55:36.750Z,15.35
2023-05-25T05:58:03.437Z,16.40
2023-05-25T06:00:30.410Z,15.13
2023-05-25T06:02:57.425Z,16.55
2023-05-25T06:05:24.137Z,16.02
2023-05-25T06:07:50.822Z,16.65
2023-05-25T06:10:17.592Z,16.45
2023-05-25T06:12:47.859Z,13.52
2023-05-25T06:15:14.607Z,14.55
2023-05-25T06:17:41.874Z,14.15
2023-05-25T06:20:09.084Z,14.23
2023-05-25T06:22:35.891Z,13.98
2023-05-25T06:25:02.676Z,13.25
2023-05-25T06:27:29.538Z,15.52
2023-05-25T06:29:56.205Z,13.05
2023-05-25T06:32:22.908Z,13.90
2023-05-25T06:34:49.624Z,13.18
2023-05-25T06:37:16.622Z,13.75
2023-05-25T06:39:43.426Z,14.48
2023-05-25T06:42:11.624Z,13.30
2023-05-25T06:44:38.297Z,13.30
2023-05-25T06:47:05.202Z,13.20
2023-05-25T06:49:31.828Z,14.93
2023-05-25T06:51:58.463Z,14.45
2023-05-25T06:54:25.096Z,15.35
2023-05-25T06:56:51.868Z,13.85
2023-05-25T06:59:18.639Z,18.08
2023-05-25T07:01:47.352Z,14.85
2023-05-25T07:04:14.263Z,14.45
2023-05-25T07:06:40.905Z,13.40
2023-05-25T07:09:07.544Z,14.25
2023-05-25T07:11:34.173Z,13.00
2023-05-25T07:14:00.916Z,13.85
2023-05-25T07:16:27.819Z,13.60
2023-05-25T07:18:54.569Z,11.88
2023-05-25T07:21:21.256Z,13.23
2023-05-25T07:23:47.968Z,14.43
2023-05-25T07:26:15.197Z,14.15
2023-05-25T07:28:43.154Z,13.77
2023-05-25T07:31:11.061Z,15.20
2023-05-25T07:33:37.807Z,12.60
2023-05-25T07:36:07.320Z,14.23
2023-05-25T07:38:34.516Z,13.88
2023-05-25T07:41:01.292Z,11.93
2023-05-25T07:43:28.057Z,12.65
2023-05-25T07:45:54.713Z,12.50
2023-05-25T07:48:21.516Z,13.27
2023-05-25T07:50:48.190Z,13.65
2023-05-25T07:53:14.817Z,12.80
2023-05-25T07:55:44.571Z,16.20
2023-05-25T07:58:11.483Z,12.13
2023-05-25T08:00:38.147Z,11.48
2023-05-25T08:03:05.058Z,13.65
2023-05-25T08:05:32.001Z,11.48
2023-05-25T08:07:58.709Z,11.60
2023-05-25T08:10:31.207Z,12.40
2023-05-25T08:12:58.995Z,13.00
2023-05-25T08:15:26.452Z,13.38
2023-05-25T08:17:53.175Z,13.25
2023-05-25T08:20:20.031Z,11.75
2023-05-25T08:22:46.876Z,12.27
2023-05-25T08:25:13.688Z,11.85
2023-05-25T08:27:40.453Z,11.25
2023-05-25T08:30:08.005Z,12.50
2023-05-25T08:32:34.735Z,11.18
2023-05-25T08:35:03.637Z,11.10
2023-05-25T08:37:31.877Z,13.15
2023-05-25T08:40:00.957Z,10.90
2023-05-25T08:42:28.072Z,11.10
2023-05-25T08:44:54.834Z,13.18
2023-05-25T08:47:23.044Z,11.73
2023-05-25T08:49:50.719Z,10.52
2023-05-25T08:52:21.160Z,12.20
2023-05-25T08:54:48.050Z,12.23
2023-05-25T08:57:23.281Z,12.00
2023-05-25T08:59:53.457Z,12.48
2023-05-25T09:02:45.311Z,12.98
2023-05-25T09:05:11.984Z,11.85
2023-05-25T09:07:38.669Z,11.85
2023-05-25T09:10:05.681Z,11.95
2023-05-25T09:12:32.443Z,10.55
2023-05-25T09:14:59.243Z,11.10
2023-05-25T09:17:26.677Z,11.57
2023-05-25T09:19:53.461Z,11.65
2023-05-25T09:22:20.124Z,10.38
2023-05-25T09:24:46.803Z,12.45
2023-05-25T09:27:18.346Z,11.05
2023-05-25T09:29:49.951Z,12.02
2023-05-25T09:32:17.366Z,10.55
2023-05-25T09:34:45.011Z,11.90
2023-05-25T09:37:13.702Z,12.45
2023-05-25T09:39:42.530Z,11.63
2023-05-25T09:42:10.201Z,11.73
2023-05-25T09:44:37.028Z,12.13
2023-05-25T09:47:04.973Z,11.63
2023-05-25T09:49:31.624Z,12.30
2023-05-25T09:51:58.336Z,12.18
2023-05-25T09:54:25.160Z,12.60
2023-05-25T09:56:51.824Z,12.40
2023-05-25T09:59:18.600Z,11.13
2023-05-25T10:01:45.306Z,12.45
2023-05-25T10:04:12.368Z,11.55
2023-05-25T10:06:39.320Z,12.70
2023-05-25T10:09:06.742Z,12.23
2023-05-25T10:11:34.971Z,12.07
2023-05-25T10:14:03.798Z,13.93
2023-05-25T10:16:30.885Z,13.68
2023-05-25T10:19:06.805Z,10.75
2023-05-25T10:21:33.627Z,15.18
2023-05-25T10:24:05.014Z,13.82
2023-05-25T10:26:33.649Z,11.82
2023-05-25T10:29:01.472Z,14.13
2023-05-25T10:31:30.058Z,13.00
2023-05-25T10:33:57.076Z,14.07
2023-05-25T10:36:23.927Z,14.27
2023-05-25T10:38:51.402Z,18.15
2023-05-25T10:41:20.118Z,15.02
2023-05-25T10:43:46.908Z,19.35
2023-05-25T10:46:15.076Z,15.85
2023-05-25T10:48:50.060Z,13.95
2023-05-25T10:51:19.361Z,13.52
2023-05-25T10:53:47.667Z,15.32
2023-05-25T10:56:14.486Z,14.35
2023-05-25T10:58:43.625Z,14.20
2023-05-25T11:01:11.796Z,12.70
2023-05-25T11:03:48.376Z,13.63
2023-05-25T11:06:15.910Z,13.93
2023-05-25T11:08:59.748Z,15.38
2023-05-25T11:11:50.109Z,14.10
2023-05-25T11:14:32.934Z,14.75
2023-05-25T11:19:54.625Z,14.23
2023-05-25T11:22:37.574Z,13.57
2023-05-25T11:27:54.108Z,14.25
2023-05-25T11:30:21.054Z,12.35
2023-05-25T11:32:50.374Z,14.05
2023-05-25T11:35:17.226Z,15.68
2023-05-25T11:37:49.847Z,15.20
2023-05-25T11:40:17.031Z,15.85
2023-05-25T11:42:46.481Z,13.63
2023-05-25T11:45:14.608Z,13.70
2023-05-25T11:47:41.800Z,13.40
2023-05-25T11:50:15.488Z,12.40
2023-05-25T11:52:42.294Z,11.43
2023-05-25T11:55:14.198Z,12.27
2023-05-25T11:57:41.041Z,12.43
2023-05-25T12:00:11.231Z,10.48
2023-05-25T12:02:38.768Z,12.13
2023-05-25T12:05:08.503Z,8.77
2023-05-25T12:07:41.798Z,9.82
2023-05-25T12:10:09.937Z,9.30
2023-05-25T12:12:45.028Z,8.52
2023-05-25T12:15:18.259Z,7.65
2023-05-25T12:17:46.801Z,8.57
2023-05-25T12:20:15.181Z,9.90
2023-05-25T12:22:42.505Z,8.13
2023-05-25T12:25:10.506Z,7.80
2023-05-25T12:27:37.213Z,11.23
2023-05-25T12:30:05.584Z,7.65
2023-05-25T12:32:32.277Z,7.63
2023-05-25T12:35:07.132Z,7.97
2023-05-25T12:37:34.225Z,6.60
2023-05-25T12:40:01.093Z,7.25
2023-05-25T12:42:29.948Z,10.55
2023-05-25T12:44:58.170Z,7.65
2023-05-25T12:47:25.577Z,8.95
2023-05-25T12:49:53.455Z,9.30
2023-05-25T12:52:37.761Z,7.22
2023-05-25T12:55:28.255Z,8.27
2023-05-25T12:57:59.384Z,7.85
2023-05-25T13:00:29.311Z,8.73
2023-05-25T13:02:56.443Z,8.07
2023-05-25T13:05:26.118Z,8.93
2023-05-25T13:07:57.926Z,7.80
2023-05-25T13:10:24.988Z,8.75
2023-05-25T13:12:52.218Z,8.82
2023-05-25T13:15:21.514Z,9.07
2023-05-25T13:17:48.999Z,8.82
2023-05-25T13:20:16.113Z,7.63
2023-05-25T13:22:43.723Z,7.97
2023-05-25T13:25:12.048Z,8.10
2023-05-25T13:27:39.100Z,9.27
2023-05-25T13:30:06.696Z,9.00
2023-05-25T13:32:34.124Z,8.98
2023-05-25T13:35:01.153Z,8.77
2023-05-25T13:37:28.094Z,8.27
2023-05-25T13:39:54.905Z,9.02
2023-05-25T13:42:21.544Z,8.80
2023-05-25T13:44:48.462Z,9.32
2023-05-25T13:47:15.135Z,9.05
2023-05-25T13:49:41.792Z,9.45
2023-05-25T13:52:08.614Z,9.27
2023-05-25T13:54:35.389Z,8.38
2023-05-25T13:57:02.740Z,8.57
2023-05-25T13:59:29.524Z,8.30
2023-05-25T14:01:56.534Z,8.57
2023-05-25T14:04:23.267Z,8.43
2023-05-25T14:06:49.967Z,11.25
2023-05-25T14:09:17.100Z,10.30
2023-05-25T14:11:44.003Z,10.48
2023-05-25T14:14:23.238Z,10.73
2023-05-25T14:16:57.130Z,8.68
2023-05-25T14:19:23.897Z,8.80
2023-05-25T14:22:03.736Z,9.68
2023-05-25T14:24:37.377Z,10.27
2023-05-25T14:27:04.819Z,9.13
2023-05-25T14:29:31.449Z,8.27
2023-05-25T14:31:58.103Z,8.95
2023-05-25T14:34:24.720Z,7.38
2023-05-25T14:36:51.443Z,8.30
2023-05-25T14:39:18.055Z,7.65
2023-05-25T14:41:44.708Z,8.85
2023-05-25T14:44:11.348Z,6.88
2023-05-25T14:46:38.079Z,7.28
2023-05-25T14:49:04.840Z,8.15
2023-05-25T14:51:31.596Z,7.93
2023-05-25T14:54:00.292Z,7.25
2023-05-25T14:56:27.874Z,7.15
2023-05-25T14:58:54.573Z,6.22
2023-05-25T15:01:23.634Z,6.78
2023-05-25T15:03:51.917Z,6.63
2023-05-25T15:06:18.922Z,7.15
2023-05-25T15:08:45.751Z,7.25
2023-05-25T15:11:12.476Z,8.20
2023-05-25T15:13:40.662Z,7.85
2023-05-25T15:16:11.133Z,8.48
2023-05-25T15:18:38.153Z,8.63
2023-05-25T15:21:04.910Z,7.68
2023-05-25T15:23:31.957Z,9.02
2023-05-25T15:26:03.045Z,8.05
2023-05-25T15:28:30.770Z,8.23
2023-05-25T15:30:58.562Z,8.32
2023-05-25T15:33:39.526Z,7.28
2023-05-25T15:36:12.974Z,11.65
2023-05-25T15:38:39.636Z,8.13
2023-05-25T15:41:07.255Z,7.57
2023-05-25T15:43:33.891Z,7.95
2023-05-25T15:46:00.652Z,7.20
2023-05-25T15:48:27.297Z,6.82
2023-05-25T15:50:54.012Z,7.85
2023-05-25T15:53:20.751Z,7.32
2023-05-25T15:55:47.400Z,8.65
2023-05-25T15:58:14.080Z,7.45
2023-05-25T16:00:40.845Z,7.63
2023-05-25T16:03:07.475Z,8.00
2023-05-25T16:05:34.124Z,8.15
2023-05-25T16:08:00.770Z,6.18
2023-05-25T16:10:27.465Z,6.30
2023-05-25T16:12:54.129Z,7.35
2023-05-25T16:15:22.781Z,6.43
2023-05-25T16:17:49.493Z,7.25
2023-05-25T16:20:16.287Z,7.15
2023-05-25T16:22:42.972Z,6.85
2023-05-25T16:25:09.814Z,6.53
2023-05-25T16:27:36.565Z,6.38
2023-05-25T16:30:03.443Z,5.82
2023-05-25T16:32:30.348Z,6.30
2023-05-25T16:34:57.054Z,6.95
2023-05-25T16:37:23.778Z,5.93
2023-05-25T16:39:50.771Z,5.43
2023-05-25T16:42:17.610Z,5.93
2023-05-25T16:44:44.296Z,7.03
2023-05-25T16:47:11.028Z,6.32
2023-05-25T16:49:37.661Z,5.55
2023-05-25T16:52:04.954Z,6.28
2023-05-25T16:54:31.659Z,5.43
2023-05-25T16:56:58.322Z,8.23
2023-05-25T16:59:24.942Z,10.63
2023-05-25T17:01:51.908Z,7.75
2023-05-25T17:04:18.659Z,7.55
2023-05-25T17:06:45.329Z,8.07
2023-05-25T17:09:12.077Z,9.10
2023-05-25T17:11:38.769Z,9.88
2023-05-25T17:14:05.917Z,9.02
2023-05-25T17:16:32.667Z,8.88
2023-05-25T17:18:59.433Z,8.65
2023-05-25T17:21:26.873Z,9.02
2023-05-25T17:23:53.569Z,9.25
2023-05-25T17:26:20.210Z,8.43
2023-05-25T17:28:46.930Z,9.05
2023-05-25T17:31:13.674Z,8.32
2023-05-25T17:33:40.504Z,9.82
2023-05-25T17:36:07.479Z,9.50
2023-05-25T17:38:37.219Z,8.60
2023-05-25T17:41:03.813Z,7.43
2023-05-25T17:43:30.476Z,9.75
2023-05-25T17:45:59.023Z,8.10
2023-05-25T17:48:25.848Z,8.40
2023-05-25T17:50:52.801Z,8.57
2023-05-25T17:53:19.669Z,8.02
2023-05-25T17:55:46.506Z,7.18
2023-05-25T17:58:13.361Z,7.85
2023-05-25T18:00:40.160Z,8.90
2023-05-25T18:03:07.060Z,8.50
2023-05-25T18:05:33.789Z,10.65
2023-05-25T18:08:00.379Z,9.65
2023-05-25T18:10:27.109Z,9.07
2023-05-25T18:12:54.178Z,11.75
2023-05-25T18:15:21.690Z,9.45
2023-05-25T18:17:48.417Z,8.27
2023-05-25T18:20:15.265Z,7.82
2023-05-25T18:22:42.090Z,9.80
2023-05-25T18:25:09.262Z,8.48
2023-05-25T18:27:35.997Z,10.55
2023-05-25T18:30:02.784Z,8.60
2023-05-25T18:32:29.442Z,10.63
2023-05-25T18:34:57.354Z,12.77
2023-05-25T18:37:24.853Z,8.45
2023-05-25T18:39:51.531Z,9.15
2023-05-25T18:42:18.292Z,8.90
2023-05-25T18:44:45.245Z,7.78
2023-05-25T18:47:12.117Z,7.88
2023-05-25T18:49:38.921Z,7.68
2023-05-25T18:52:06.530Z,7.68
2023-05-25T18:54:33.153Z,7.22
2023-05-25T18:56:59.852Z,7.65
2023-05-25T18:59:26.616Z,8.48
2023-05-25T19:01:53.305Z,8.32
2023-05-25T19:04:20.293Z,8.02
2023-05-25T19:06:47.052Z,8.55
2023-05-25T19:09:13.729Z,8.10
2023-05-25T19:11:41.035Z,8.38
2023-05-25T19:14:07.697Z,9.32
2023-05-25T19:16:34.476Z,9.57
2023-05-25T19:19:01.518Z,8.77
2023-05-25T19:21:28.182Z,8.40
2023-05-25T19:23:56.409Z,12.75
2023-05-25T19:26:24.345Z,11.93
2023-05-25T19:28:51.853Z,12.27
2023-05-25T19:31:18.620Z,9.48
2023-05-25T19:33:45.358Z,9.55
2023-05-25T19:36:12.097Z,8.73
2023-05-25T19:38:41.732Z,8.52
2023-05-25T19:41:08.947Z,9.55
2023-05-25T19:43:36.010Z,8.95
2023-05-25T19:46:02.991Z,10.15
2023-05-25T19:48:29.849Z,9.65
2023-05-25T19:50:56.616Z,10.57
2023-05-25T19:53:23.395Z,11.70
2023-05-25T19:55:50.066Z,11.60
2023-05-25T19:58:16.749Z,9.70
2023-05-25T20:00:43.374Z,10.68
2023-05-25T20:03:10.256Z,9.15
2023-05-25T20:05:37.055Z,11.40
2023-05-25T20:08:03.768Z,12.23
2023-05-25T20:10:30.888Z,13.23
2023-05-25T20:12:57.589Z,10.80
2023-05-25T20:15:24.329Z,10.00
2023-05-25T20:17:51.010Z,9.27
2023-05-25T20:20:17.659Z,9.98
2023-05-25T20:22:44.391Z,9.00
2023-05-25T20:25:11.039Z,10.52
2023-05-25T20:27:37.698Z,9.73
2023-05-25T20:30:04.673Z,10.55
2023-05-25T20:32:31.468Z,10.15
2023-05-25T20:34:58.468Z,9.50
2023-05-25T20:37:25.585Z,10.48
2023-05-25T20:39:52.376Z,10.32
2023-05-25T20:42:18.993Z,9.40
2023-05-25T20:44:45.739Z,11.48
2023-05-25T20:47:12.391Z,9.10
2023-05-25T20:49:39.033Z,9.75
2023-05-25T20:52:05.774Z,10.02
2023-05-25T20:54:33.355Z,9.95
2023-05-25T20:57:03.821Z,10.90
2023-05-25T20:59:31.688Z,9.93
2023-05-25T21:01:58.630Z,8.73
2023-05-25T21:04:25.732Z,11.40
2023-05-25T21:06:52.536Z,10.98
2023-05-25T21:09:19.362Z,10.65
2023-05-25T21:11:46.196Z,10.52
2023-05-25T21:14:12.941Z,11.00
2023-05-25T21:16:39.694Z,10.27
2023-05-25T21:19:06.555Z,10.15
2023-05-25T21:21:33.887Z,13.05
2023-05-25T21:24:01.523Z,10.68
2023-05-25T21:26:28.937Z,11.57
2023-05-25T21:28:55.581Z,9.93
2023-05-25T21:31:23.858Z,11.60
2023-05-25T21:33:51.072Z,10.77
2023-05-25T21:36:17.755Z,11.90
2023-05-25T21:38:44.449Z,13.10
2023-05-25T21:41:11.141Z,13.05
2023-05-25T21:43:37.762Z,12.35
2023-05-25T21:46:04.604Z,10.82
2023-05-25T21:48:31.231Z,12.43
2023-05-25T21:50:58.136Z,15.68
2023-05-25T21:53:25.074Z,13.75
2023-05-25T21:55:52.780Z,12.80
2023-05-25T21:58:19.417Z,12.60
2023-05-25T22:00:46.133Z,12.93
2023-05-25T22:03:12.855Z,14.60
2023-05-25T22:05:39.936Z,15.95
2023-05-25T22:08:06.838Z,11.85
2023-05-25T22:10:33.436Z,12.93
2023-05-25T22:13:00.977Z,15.48
2023-05-25T22:15:27.621Z,10.88
2023-05-25T22:17:54.927Z,12.95
2023-05-25T22:20:21.798Z,14.45
2023-05-25T22:22:48.683Z,13.00
2023-05-25T22:25:15.485Z,13.55
2023-05-25T22:27:42.122Z,12.27
2023-05-25T22:30:09.289Z,11.65
2023-05-25T22:32:35.903Z,11.05
2023-05-25T22:35:03.685Z,12.18
2023-05-25T22:37:30.376Z,13.15
2023-05-25T22:39:57.414Z,12.25
2023-05-25T22:42:24.132Z,11.80
2023-05-25T22:44:51.210Z,11.32
2023-05-25T22:47:17.877Z,11.25
2023-05-25T22:49:44.762Z,12.23
2023-05-25T22:52:11.694Z,10.52
2023-05-25T22:54:38.389Z,14.63
2023-05-25T22:57:06.324Z,11.02
2023-05-25T22:59:32.985Z,11.23
2023-05-25T23:01:59.722Z,10.98
2023-05-25T23:04:26.494Z,11.35
2023-05-25T23:06:53.198Z,9.90
2023-05-25T23:09:19.895Z,10.73
2023-05-25T23:11:46.617Z,11.73
2023-05-25T23:14:13.347Z,13.05
2023-05-25T23:16:41.326Z,12.80
2023-05-25T23:19:08.125Z,11.88
2023-05-25T23:21:34.735Z,12.93
2023-05-25T23:24:01.720Z,16.20
2023-05-25T23:26:28.363Z,15.45
2023-05-25T23:28:55.055Z,11.68
2023-05-25T23:31:21.835Z,16.85
2023-05-25T23:33:48.797Z,16.35
2023-05-25T23:36:15.498Z,12.15
2023-05-25T23:38:42.579Z,10.35
2023-05-25T23:41:09.204Z,15.30
2023-05-25T23:43:35.866Z,11.90
2023-05-25T23:46:02.599Z,13.30
2023-05-25T23:48:29.350Z,12.20
2023-05-25T23:50:56.089Z,11.95
2023-05-25T23:53:22.770Z,11.77
2023-05-25T23:55:49.530Z,12.00
2023-05-25T23:58:16.461Z,10.65
